Terminal Aerodrome Forecast
Issued by NWS

Current Version | Previous Version | Graphics & Text | Print | Product List | Glossary On
Versions: 1 2 3 4 5 6 7 8 9 10 11 12 13 14 15 16 17 18 19 20 21 22 23 24 25 26 27 28 29 30 31 32 33 34 35 36 37 38 39 40 41 42 43 44
000
FTUS41 KRNK 181138
TAFLWB
TAF
KLWB 181138Z 1812/1912 18005KT P6SM BKN150
     FM182200 19010KT P6SM VCSH SCT030 OVC045
     FM190100 18008G19KT 5SM -SHRA OVC020
     FM190500 26015G26KT P6SM -SHRA OVC025
     FM190900 29017G30KT P6SM -SHRA OVC020=

USA.gov is the U.S. government's official web portal to all federal, state and local government web resources and services.